createdAt,value
2023-05-06T00:00:05.726Z,21.63
2023-05-06T00:00:11.275Z,21.64
2023-05-06T00:00:16.826Z,21.64
2023-05-06T00:00:22.360Z,21.64
2023-05-06T00:00:27.898Z,21.63
2023-05-06T00:00:33.437Z,21.63
2023-05-06T00:01:06.243Z,21.63
2023-05-06T00:01:11.775Z,21.61
2023-05-06T00:01:17.320Z,21.61
2023-05-06T00:01:22.858Z,21.63
2023-05-06T00:01:28.398Z,21.64
2023-05-06T00:01:33.940Z,21.61
2023-05-06T00:02:06.723Z,21.63
2023-05-06T00:02:12.266Z,21.63
2023-05-06T00:02:17.857Z,21.64
2023-05-06T00:02:23.391Z,21.63
2023-05-06T00:02:28.963Z,21.61
2023-05-06T00:02:34.703Z,21.61
2023-05-06T00:03:07.613Z,21.59
2023-05-06T00:03:13.300Z,21.61
2023-05-06T00:03:18.938Z,21.59
2023-05-06T00:03:24.587Z,21.63
2023-05-06T00:03:30.288Z,21.61
2023-05-06T00:03:36.001Z,21.61
2023-05-06T00:04:09.022Z,21.63
2023-05-06T00:04:14.599Z,21.63
2023-05-06T00:04:20.178Z,21.63
2023-05-06T00:04:25.731Z,21.61
2023-05-06T00:04:31.305Z,21.61
2023-05-06T00:04:36.820Z,21.61
2023-05-06T00:05:09.854Z,21.63
2023-05-06T00:05:15.581Z,21.63
2023-05-06T00:05:21.135Z,21.61
2023-05-06T00:05:26.674Z,21.63
2023-05-06T00:05:32.214Z,21.61
2023-05-06T00:05:37.752Z,21.61
2023-05-06T00:06:10.590Z,21.63
2023-05-06T00:06:16.138Z,21.59
2023-05-06T00:06:21.672Z,21.59
2023-05-06T00:06:27.219Z,21.63
2023-05-06T00:06:32.757Z,21.63
2023-05-06T00:06:38.299Z,21.63
2023-05-06T00:07:11.098Z,21.61
2023-05-06T00:07:16.633Z,21.59
2023-05-06T00:07:22.181Z,21.59
2023-05-06T00:07:27.706Z,21.61
2023-05-06T00:07:33.259Z,21.59
2023-05-06T00:07:38.823Z,21.56
2023-05-06T00:08:11.670Z,21.61
2023-05-06T00:08:17.206Z,21.61
2023-05-06T00:08:22.751Z,21.61
2023-05-06T00:08:28.287Z,21.61
2023-05-06T00:08:33.826Z,21.61
2023-05-06T00:08:39.366Z,21.61
2023-05-06T00:09:12.214Z,21.59
2023-05-06T00:09:17.747Z,21.61
2023-05-06T00:09:23.289Z,21.61
2023-05-06T00:09:28.822Z,21.61
2023-05-06T00:09:34.363Z,21.59
2023-05-06T00:09:39.909Z,21.59
2023-05-06T00:10:12.861Z,21.61
2023-05-06T00:10:18.400Z,21.61
2023-05-06T00:10:23.931Z,21.61
2023-05-06T00:10:29.473Z,21.63
2023-05-06T00:10:35.007Z,21.61
2023-05-06T00:10:40.548Z,21.61
2023-05-06T00:11:13.357Z,21.58
2023-05-06T00:11:18.891Z,21.58
2023-05-06T00:11:24.431Z,21.59
2023-05-06T00:11:29.964Z,21.61
2023-05-06T00:11:35.536Z,21.59
2023-05-06T00:11:41.052Z,21.59
2023-05-06T00:12:13.866Z,21.58
2023-05-06T00:12:19.417Z,21.59
2023-05-06T00:12:24.948Z,21.59
2023-05-06T00:12:30.490Z,21.58
2023-05-06T00:12:36.059Z,21.59
2023-05-06T00:12:41.673Z,21.61
2023-05-06T00:13:14.690Z,21.58
2023-05-06T00:13:20.269Z,21.59
2023-05-06T00:13:25.781Z,21.58
2023-05-06T00:13:31.321Z,21.59
2023-05-06T00:13:36.865Z,21.59
2023-05-06T00:13:42.422Z,21.59
2023-05-06T00:14:15.243Z,21.58
2023-05-06T00:14:20.791Z,21.58
2023-05-06T00:14:26.317Z,21.58
2023-05-06T00:14:31.858Z,21.58
2023-05-06T00:14:37.409Z,21.59
2023-05-06T00:14:42.941Z,21.59
2023-05-06T00:15:15.748Z,21.58
2023-05-06T00:15:21.286Z,21.61
2023-05-06T00:15:26.827Z,21.58
2023-05-06T00:15:32.429Z,21.59
2023-05-06T00:15:37.915Z,21.59
2023-05-06T00:15:43.453Z,21.58
2023-05-06T00:16:16.346Z,21.58
2023-05-06T00:16:21.870Z,21.61
2023-05-06T00:16:27.422Z,21.61
2023-05-06T00:16:32.986Z,21.59
2023-05-06T00:16:38.573Z,21.58
2023-05-06T00:16:44.228Z,21.58
2023-05-06T00:17:17.029Z,21.59
2023-05-06T00:17:22.568Z,21.58
2023-05-06T00:17:28.114Z,21.59
2023-05-06T00:17:33.712Z,21.59
2023-05-06T00:17:39.267Z,21.59
2023-05-06T00:17:44.824Z,21.59
2023-05-06T00:18:17.674Z,21.59
2023-05-06T00:18:23.213Z,21.59
2023-05-06T00:18:28.749Z,21.59
2023-05-06T00:18:34.290Z,21.58
2023-05-06T00:18:39.834Z,21.58
2023-05-06T00:18:45.373Z,21.59
2023-05-06T00:19:18.161Z,21.61
2023-05-06T00:19:23.712Z,21.59
2023-05-06T00:19:29.245Z,21.61
2023-05-06T00:19:34.787Z,21.61
2023-05-06T00:19:40.319Z,21.58
2023-05-06T00:19:45.858Z,21.58
2023-05-06T00:20:18.689Z,21.58
2023-05-06T00:20:24.241Z,21.61
2023-05-06T00:20:29.783Z,21.58
2023-05-06T00:20:35.316Z,21.58
2023-05-06T00:20:40.858Z,21.59
2023-05-06T00:20:46.404Z,21.59
2023-05-06T00:21:19.199Z,21.59
2023-05-06T00:21:24.736Z,21.59
2023-05-06T00:21:30.272Z,21.59
2023-05-06T00:21:35.813Z,21.61
2023-05-06T00:21:41.346Z,21.61
2023-05-06T00:21:46.897Z,21.58
2023-05-06T00:22:19.698Z,21.59
2023-05-06T00:22:25.242Z,21.59
2023-05-06T00:22:30.781Z,21.59
2023-05-06T00:22:36.318Z,21.59
2023-05-06T00:22:41.857Z,21.58
2023-05-06T00:22:47.600Z,21.58
2023-05-06T00:23:20.413Z,21.59
2023-05-06T00:23:25.944Z,21.59
2023-05-06T00:23:31.488Z,21.59
2023-05-06T00:23:37.039Z,21.59
2023-05-06T00:23:42.587Z,21.58
2023-05-06T00:23:48.119Z,21.58
2023-05-06T00:24:21.040Z,21.61
2023-05-06T00:24:26.566Z,21.59
2023-05-06T00:24:32.104Z,21.59
2023-05-06T00:24:37.634Z,21.58
2023-05-06T00:24:43.174Z,21.58
2023-05-06T00:24:48.724Z,21.59
2023-05-06T00:25:21.526Z,21.61
2023-05-06T00:25:27.084Z,21.59
2023-05-06T00:25:32.601Z,21.61
2023-05-06T00:25:38.148Z,21.59
2023-05-06T00:25:43.682Z,21.58
2023-05-06T00:25:49.225Z,21.59
2023-05-06T00:26:22.046Z,21.59
2023-05-06T00:26:27.575Z,21.59
2023-05-06T00:26:33.112Z,21.58
2023-05-06T00:26:38.649Z,21.58
2023-05-06T00:26:44.190Z,21.59
2023-05-06T00:26:49.736Z,21.58
2023-05-06T00:27:22.557Z,21.58
2023-05-06T00:27:28.137Z,21.59
2023-05-06T00:27:33.683Z,21.58
2023-05-06T00:27:39.220Z,21.59
2023-05-06T00:27:44.759Z,21.58
2023-05-06T00:27:50.333Z,21.58
2023-05-06T00:28:23.150Z,21.56
2023-05-06T00:28:28.702Z,21.56
2023-05-06T00:28:34.243Z,21.56
2023-05-06T00:28:39.837Z,21.58
2023-05-06T00:28:45.385Z,21.58
2023-05-06T00:28:50.925Z,21.58
2023-05-06T00:29:23.722Z,21.56
2023-05-06T00:29:29.258Z,21.56
2023-05-06T00:29:34.794Z,21.56
2023-05-06T00:29:40.356Z,21.58
2023-05-06T00:29:45.890Z,21.56
2023-05-06T00:29:51.423Z,21.58
2023-05-06T00:30:24.245Z,21.58
2023-05-06T00:30:29.779Z,21.56
2023-05-06T00:30:35.322Z,21.56
2023-05-06T00:30:40.880Z,21.56
2023-05-06T00:30:46.411Z,21.58
2023-05-06T00:30:51.933Z,21.56
2023-05-06T00:31:24.760Z,21.58
2023-05-06T00:31:30.329Z,21.56
2023-05-06T00:31:35.867Z,21.58
2023-05-06T00:31:41.414Z,21.58
2023-05-06T00:31:46.972Z,21.58
2023-05-06T00:31:52.512Z,21.56
2023-05-06T00:32:25.375Z,21.58
2023-05-06T00:32:30.932Z,21.58
2023-05-06T00:32:36.473Z,21.58
2023-05-06T00:32:42.012Z,21.58
2023-05-06T00:32:47.563Z,21.58
2023-05-06T00:32:53.176Z,21.58
2023-05-06T00:33:25.982Z,21.56
2023-05-06T00:33:31.526Z,21.58
2023-05-06T00:33:37.062Z,21.56
2023-05-06T00:33:42.607Z,21.59
2023-05-06T00:33:48.151Z,21.56
2023-05-06T00:33:53.683Z,21.58
2023-05-06T00:34:26.528Z,21.58
2023-05-06T00:34:32.060Z,21.58
2023-05-06T00:34:37.613Z,21.58
2023-05-06T00:34:43.151Z,21.58
2023-05-06T00:34:48.691Z,21.58
2023-05-06T00:34:54.230Z,21.56
2023-05-06T00:35:27.038Z,21.56
2023-05-06T00:35:32.577Z,21.56
2023-05-06T00:35:38.111Z,21.56
2023-05-06T00:35:43.669Z,21.58
2023-05-06T00:35:49.192Z,21.56
2023-05-06T00:35:54.735Z,21.56
2023-05-06T00:36:27.548Z,21.55
2023-05-06T00:36:33.092Z,21.56
2023-05-06T00:36:38.621Z,21.58
2023-05-06T00:36:44.178Z,21.55
2023-05-06T00:36:49.717Z,21.55
2023-05-06T00:36:55.247Z,21.56
2023-05-06T00:37:28.049Z,21.55
2023-05-06T00:37:33.594Z,21.58
2023-05-06T00:37:39.270Z,21.56
2023-05-06T00:37:44.815Z,21.58
2023-05-06T00:37:50.356Z,21.58
2023-05-06T00:37:55.894Z,21.56
2023-05-06T00:38:28.762Z,21.58
2023-05-06T00:38:34.289Z,21.56
2023-05-06T00:38:39.831Z,21.58
2023-05-06T00:38:45.368Z,21.56
2023-05-06T00:38:50.909Z,21.58
2023-05-06T00:38:56.452Z,21.58
2023-05-06T00:39:29.284Z,21.56
2023-05-06T00:39:34.823Z,21.59
2023-05-06T00:39:40.381Z,21.58
2023-05-06T00:39:45.906Z,21.58
2023-05-06T00:39:51.432Z,21.58
2023-05-06T00:39:56.980Z,21.58
2023-05-06T00:40:29.825Z,21.59
2023-05-06T00:40:35.400Z,21.58
2023-05-06T00:40:40.896Z,21.59
2023-05-06T00:40:46.443Z,21.56
2023-05-06T00:40:51.992Z,21.59
2023-05-06T00:40:57.528Z,21.59
2023-05-06T00:41:30.330Z,21.59
2023-05-06T00:41:35.869Z,21.56
2023-05-06T00:41:41.428Z,21.58
2023-05-06T00:41:46.951Z,21.58
2023-05-06T00:41:52.481Z,21.58
2023-05-06T00:41:58.017Z,21.59
2023-05-06T00:42:30.856Z,21.58
2023-05-06T00:42:36.379Z,21.59
2023-05-06T00:42:41.974Z,21.58
2023-05-06T00:42:47.492Z,21.56
2023-05-06T00:42:53.030Z,21.58
2023-05-06T00:42:58.574Z,21.58
2023-05-06T00:43:31.402Z,21.58
2023-05-06T00:43:36.935Z,21.58
2023-05-06T00:43:42.480Z,21.58
2023-05-06T00:43:48.037Z,21.59
2023-05-06T00:43:53.568Z,21.56
2023-05-06T00:43:59.105Z,21.56
2023-05-06T00:44:31.932Z,21.58
2023-05-06T00:44:37.480Z,21.55
2023-05-06T00:44:43.017Z,21.58
2023-05-06T00:44:48.550Z,21.58
2023-05-06T00:44:54.089Z,21.58
2023-05-06T00:44:59.628Z,21.58
2023-05-06T00:45:32.546Z,21.59
2023-05-06T00:45:38.093Z,21.58
2023-05-06T00:45:43.611Z,21.58
2023-05-06T00:45:49.159Z,21.58
2023-05-06T00:45:54.729Z,21.58
2023-05-06T00:46:00.270Z,21.58
2023-05-06T00:46:33.121Z,21.58
2023-05-06T00:46:38.666Z,21.58
2023-05-06T00:46:44.193Z,21.59
2023-05-06T00:46:49.743Z,21.58
2023-05-06T00:46:55.281Z,21.59
2023-05-06T00:47:00.844Z,21.58
2023-05-06T00:47:33.691Z,21.59
2023-05-06T00:47:39.255Z,21.58
2023-05-06T00:47:44.834Z,21.58
2023-05-06T00:47:50.382Z,21.56
2023-05-06T00:47:55.918Z,21.56
2023-05-06T00:48:01.633Z,21.58
2023-05-06T00:48:34.572Z,21.56
2023-05-06T00:48:40.111Z,21.58
2023-05-06T00:48:45.645Z,21.55
2023-05-06T00:48:51.189Z,21.56
2023-05-06T00:48:56.724Z,21.56
2023-05-06T00:49:02.272Z,21.56
2023-05-06T00:49:35.130Z,21.55
2023-05-06T00:49:40.665Z,21.55
2023-05-06T00:49:46.226Z,21.56
2023-05-06T00:49:51.784Z,21.55
2023-05-06T00:49:57.304Z,21.56
2023-05-06T00:50:02.845Z,21.55
2023-05-06T00:50:35.675Z,21.56
2023-05-06T00:50:41.196Z,21.56
2023-05-06T00:50:46.735Z,21.58
2023-05-06T00:50:52.260Z,21.58
2023-05-06T00:50:57.807Z,21.56
2023-05-06T00:51:03.344Z,21.56
2023-05-06T00:51:36.161Z,21.59
2023-05-06T00:51:41.708Z,21.58
2023-05-06T00:51:47.253Z,21.58
2023-05-06T00:51:52.792Z,21.56
2023-05-06T00:51:58.334Z,21.58
2023-05-06T00:52:04.010Z,21.56
2023-05-06T00:52:36.785Z,21.56
2023-05-06T00:52:42.327Z,21.56
2023-05-06T00:52:47.896Z,21.56
2023-05-06T00:52:53.438Z,21.56
2023-05-06T00:52:58.996Z,21.53
2023-05-06T00:53:04.527Z,21.56
2023-05-06T00:53:37.360Z,21.55
2023-05-06T00:53:42.895Z,21.56
2023-05-06T00:53:48.430Z,21.55
2023-05-06T00:53:53.976Z,21.55
2023-05-06T00:53:59.518Z,21.55
2023-05-06T00:54:05.056Z,21.55
2023-05-06T00:54:37.857Z,21.55
2023-05-06T00:54:43.396Z,21.55
2023-05-06T00:54:49.046Z,21.56
2023-05-06T00:54:54.594Z,21.56
2023-05-06T00:55:00.157Z,21.56
2023-05-06T00:55:05.731Z,21.53
2023-05-06T00:55:38.529Z,21.55
2023-05-06T00:55:44.130Z,21.56
2023-05-06T00:55:49.683Z,21.55
2023-05-06T00:55:55.216Z,21.55
2023-05-06T00:56:00.775Z,21.55
2023-05-06T00:56:06.304Z,21.56
2023-05-06T00:56:39.113Z,21.55
2023-05-06T00:56:44.654Z,21.55
2023-05-06T00:56:50.187Z,21.55
2023-05-06T00:56:55.730Z,21.55
2023-05-06T00:57:01.297Z,21.55
2023-05-06T00:57:06.823Z,21.56
2023-05-06T00:57:39.641Z,21.55
2023-05-06T00:57:45.178Z,21.55
2023-05-06T00:57:50.751Z,21.55
2023-05-06T00:57:56.298Z,21.55
2023-05-06T00:58:01.833Z,21.53
2023-05-06T00:58:07.390Z,21.55
2023-05-06T00:58:40.226Z,21.55
2023-05-06T00:58:45.769Z,21.55
2023-05-06T00:58:51.307Z,21.55
2023-05-06T00:58:56.853Z,21.55
2023-05-06T00:59:02.392Z,21.55
2023-05-06T00:59:07.925Z,21.55
2023-05-06T00:59:40.814Z,21.53
2023-05-06T00:59:46.332Z,21.55
2023-05-06T00:59:51.926Z,21.53
2023-05-06T00:59:57.419Z,21.56
2023-05-06T01:00:02.960Z,21.55
2023-05-06T01:00:08.488Z,21.56
2023-05-06T01:00:41.318Z,21.55
2023-05-06T01:00:46.910Z,21.55
2023-05-06T01:00:52.529Z,21.55
2023-05-06T01:00:58.060Z,21.55
2023-05-06T01:01:03.601Z,21.53
2023-05-06T01:01:09.141Z,21.55
2023-05-06T01:01:42.072Z,21.56
2023-05-06T01:01:47.660Z,21.55
2023-05-06T01:01:53.200Z,21.55
2023-05-06T01:01:58.736Z,21.55
2023-05-06T01:02:04.322Z,21.53
2023-05-06T01:02:09.869Z,21.53
2023-05-06T01:02:47.398Z,21.52
2023-05-06T01:02:53.191Z,21.53
2023-05-06T01:02:58.878Z,21.53
2023-05-06T01:03:04.471Z,21.55
2023-05-06T01:03:10.058Z,21.53
2023-05-06T01:03:15.679Z,21.52
2023-05-06T01:03:43.232Z,21.53
2023-05-06T01:03:54.454Z,21.53
2023-05-06T01:04:00.126Z,21.53
2023-05-06T01:04:05.772Z,21.53
2023-05-06T01:04:11.353Z,21.53
2023-05-06T01:04:16.887Z,21.55
2023-05-06T01:04:44.274Z,21.53
2023-05-06T01:04:55.289Z,21.53
2023-05-06T01:05:00.845Z,21.52
2023-05-06T01:05:06.482Z,21.52
2023-05-06T01:05:12.256Z,21.52
2023-05-06T01:05:17.967Z,21.55
2023-05-06T01:05:45.358Z,21.55
2023-05-06T01:05:56.422Z,21.53
2023-05-06T01:06:01.961Z,21.52
2023-05-06T01:06:07.505Z,21.52
2023-05-06T01:06:13.040Z,21.53
2023-05-06T01:06:18.586Z,21.53
2023-05-06T01:06:45.929Z,21.53
2023-05-06T01:06:56.953Z,21.53
2023-05-06T01:07:02.483Z,21.53
2023-05-06T01:07:08.025Z,21.52
2023-05-06T01:07:13.578Z,21.53
2023-05-06T01:07:19.093Z,21.53
2023-05-06T01:07:46.478Z,21.53
2023-05-06T01:07:57.570Z,21.53
2023-05-06T01:08:03.099Z,21.53
2023-05-06T01:08:08.661Z,21.52
2023-05-06T01:08:14.185Z,21.53
2023-05-06T01:08:19.729Z,21.55
2023-05-06T01:08:47.110Z,21.53
2023-05-06T01:08:58.113Z,21.53
2023-05-06T01:09:03.653Z,21.52
2023-05-06T01:09:09.203Z,21.53
2023-05-06T01:09:14.744Z,21.53
2023-05-06T01:09:20.279Z,21.53
2023-05-06T01:09:47.655Z,21.52
2023-05-06T01:09:58.646Z,21.52
2023-05-06T01:10:04.203Z,21.53
2023-05-06T01:10:09.723Z,21.53
2023-05-06T01:10:15.270Z,21.55
2023-05-06T01:10:20.812Z,21.53
2023-05-06T01:10:48.159Z,21.53
2023-05-06T01:10:59.206Z,21.53
2023-05-06T01:11:04.752Z,21.52
2023-05-06T01:11:10.277Z,21.52
2023-05-06T01:11:16.108Z,21.52
2023-05-06T01:11:21.630Z,21.52
2023-05-06T01:11:48.988Z,21.52
2023-05-06T01:11:59.973Z,21.51
2023-05-06T01:12:05.508Z,21.52
2023-05-06T01:12:11.054Z,21.53
2023-05-06T01:12:16.587Z,21.53
2023-05-06T01:12:22.149Z,21.52
2023-05-06T01:12:49.521Z,21.52
2023-05-06T01:13:00.576Z,21.53
2023-05-06T01:13:06.179Z,21.53
2023-05-06T01:13:11.757Z,21.52
2023-05-06T01:13:17.334Z,21.52
2023-05-06T01:13:22.900Z,21.53
2023-05-06T01:13:50.262Z,21.52
2023-05-06T01:14:01.263Z,21.52
2023-05-06T01:14:06.801Z,21.53
2023-05-06T01:14:12.329Z,21.53
2023-05-06T01:14:17.876Z,21.53
2023-05-06T01:14:23.413Z,21.53
2023-05-06T01:14:50.768Z,21.52
2023-05-06T01:15:01.757Z,21.52
2023-05-06T01:15:07.408Z,21.52
2023-05-06T01:15:13.049Z,21.53
2023-05-06T01:15:18.594Z,21.55
2023-05-06T01:15:24.121Z,21.53
2023-05-06T01:15:51.547Z,21.52
2023-05-06T01:16:02.547Z,21.53
2023-05-06T01:16:08.086Z,21.53
2023-05-06T01:16:13.639Z,21.53
2023-05-06T01:16:19.251Z,21.53
2023-05-06T01:16:24.827Z,21.51
2023-05-06T01:16:52.195Z,21.53
2023-05-06T01:17:03.231Z,21.52
2023-05-06T01:17:08.886Z,21.52
2023-05-06T01:17:14.487Z,21.52
2023-05-06T01:17:19.993Z,21.52
2023-05-06T01:17:25.537Z,21.52
2023-05-06T01:17:52.983Z,21.53
2023-05-06T01:18:04.026Z,21.53
2023-05-06T01:18:09.585Z,21.52
2023-05-06T01:18:15.103Z,21.53
2023-05-06T01:18:20.639Z,21.55
2023-05-06T01:18:26.178Z,21.52
2023-05-06T01:18:53.569Z,21.52
2023-05-06T01:19:04.565Z,21.52
2023-05-06T01:19:10.112Z,21.52
2023-05-06T01:19:15.643Z,21.52
2023-05-06T01:19:21.186Z,21.52
2023-05-06T01:19:26.734Z,21.51
2023-05-06T01:19:54.088Z,21.52
2023-05-06T01:20:05.088Z,21.52
2023-05-06T01:20:10.619Z,21.52
2023-05-06T01:20:16.158Z,21.52
2023-05-06T01:20:21.690Z,21.52
2023-05-06T01:20:27.232Z,21.53
2023-05-06T01:20:54.614Z,21.52
2023-05-06T01:21:05.620Z,21.52
2023-05-06T01:21:11.143Z,21.53
2023-05-06T01:21:16.674Z,21.53
2023-05-06T01:21:22.219Z,21.52
2023-05-06T01:21:27.753Z,21.52
2023-05-06T01:21:55.161Z,21.52
2023-05-06T01:22:06.153Z,21.51
2023-05-06T01:22:11.693Z,21.52
2023-05-06T01:22:17.227Z,21.52
2023-05-06T01:22:22.779Z,21.51
2023-05-06T01:22:28.313Z,21.52
2023-05-06T01:22:55.672Z,21.51
2023-05-06T01:23:07.139Z,21.52
2023-05-06T01:23:12.692Z,21.51
2023-05-06T01:23:18.222Z,21.51
2023-05-06T01:23:23.769Z,21.52
2023-05-06T01:23:29.309Z,21.51
2023-05-06T01:23:56.715Z,21.49
2023-05-06T01:24:07.744Z,21.52
2023-05-06T01:24:13.284Z,21.49
2023-05-06T01:24:18.825Z,21.49
2023-05-06T01:24:24.361Z,21.49
2023-05-06T01:24:29.904Z,21.49
2023-05-06T01:24:57.324Z,21.49
2023-05-06T01:25:08.692Z,21.51
2023-05-06T01:25:14.375Z,21.52
2023-05-06T01:25:19.916Z,21.51
2023-05-06T01:25:25.451Z,21.49
2023-05-06T01:25:30.986Z,21.51
2023-05-06T01:25:59.296Z,21.51
2023-05-06T01:26:10.287Z,21.51
2023-05-06T01:26:15.820Z,21.49
2023-05-06T01:26:21.359Z,21.49
2023-05-06T01:26:26.932Z,21.49
2023-05-06T01:26:32.435Z,21.51
2023-05-06T01:26:59.797Z,21.52
2023-05-06T01:27:10.811Z,21.48
2023-05-06T01:27:16.356Z,21.49
2023-05-06T01:27:21.907Z,21.49
2023-05-06T01:27:27.434Z,21.51
2023-05-06T01:27:32.977Z,21.49
2023-05-06T01:28:00.325Z,21.48
2023-05-06T01:28:11.508Z,21.49
2023-05-06T01:28:17.048Z,21.49
2023-05-06T01:28:22.579Z,21.51
2023-05-06T01:28:28.235Z,21.48
2023-05-06T01:28:33.813Z,21.49
2023-05-06T01:29:01.188Z,21.49
2023-05-06T01:29:12.217Z,21.51
2023-05-06T01:29:17.769Z,21.51
2023-05-06T01:29:23.308Z,21.49
2023-05-06T01:29:28.835Z,21.51
2023-05-06T01:29:34.384Z,21.51
2023-05-06T01:30:01.761Z,21.49
2023-05-06T01:30:12.759Z,21.51
2023-05-06T01:30:18.562Z,21.51
2023-05-06T01:30:24.073Z,21.51
2023-05-06T01:30:29.603Z,21.49
2023-05-06T01:30:35.140Z,21.49
2023-05-06T01:31:02.521Z,21.51
2023-05-06T01:31:13.548Z,21.52
2023-05-06T01:31:19.163Z,21.52
2023-05-06T01:31:24.756Z,21.52
2023-05-06T01:31:30.279Z,21.52
2023-05-06T01:31:35.893Z,21.51
2023-05-06T01:32:03.230Z,21.49
2023-05-06T01:32:14.220Z,21.49
2023-05-06T01:32:19.818Z,21.49
2023-05-06T01:32:25.358Z,21.49
2023-05-06T01:32:30.994Z,21.49
2023-05-06T01:32:36.555Z,21.51
2023-05-06T01:33:03.963Z,21.49
2023-05-06T01:33:14.971Z,21.49
2023-05-06T01:33:20.500Z,21.49
2023-05-06T01:33:26.039Z,21.49
2023-05-06T01:33:31.598Z,21.48
2023-05-06T01:33:37.121Z,21.49
2023-05-06T01:34:04.459Z,21.48
2023-05-06T01:34:15.551Z,21.49
2023-05-06T01:34:21.103Z,21.45
2023-05-06T01:34:26.633Z,21.48
2023-05-06T01:34:32.209Z,21.49
2023-05-06T01:34:37.707Z,21.49
2023-05-06T01:35:05.102Z,21.49
2023-05-06T01:35:16.063Z,21.48
2023-05-06T01:35:21.601Z,21.49
2023-05-06T01:35:27.142Z,21.49
2023-05-06T01:35:32.710Z,21.46
2023-05-06T01:35:38.228Z,21.49
2023-05-06T01:36:05.591Z,21.48
2023-05-06T01:36:16.582Z,21.48
2023-05-06T01:36:22.122Z,21.48
2023-05-06T01:36:27.665Z,21.48
2023-05-06T01:36:33.201Z,21.46
2023-05-06T01:36:38.750Z,21.46
2023-05-06T01:37:06.126Z,21.48
2023-05-06T01:37:17.113Z,21.48
2023-05-06T01:37:22.652Z,21.46
2023-05-06T01:37:28.203Z,21.45
2023-05-06T01:37:33.744Z,21.48
2023-05-06T01:37:39.363Z,21.48
2023-05-06T01:38:06.728Z,21.46
2023-05-06T01:38:17.747Z,21.48
2023-05-06T01:38:23.292Z,21.46
2023-05-06T01:38:28.823Z,21.48
2023-05-06T01:38:34.368Z,21.48
2023-05-06T01:38:39.914Z,21.48
2023-05-06T01:39:07.276Z,21.49
2023-05-06T01:39:18.243Z,21.48
2023-05-06T01:39:23.781Z,21.49
2023-05-06T01:39:29.329Z,21.49
2023-05-06T01:39:34.877Z,21.46
2023-05-06T01:39:40.415Z,21.48
2023-05-06T01:40:07.804Z,21.49
2023-05-06T01:40:18.761Z,21.48
2023-05-06T01:40:24.298Z,21.49
2023-05-06T01:40:29.841Z,21.49
2023-05-06T01:40:35.378Z,21.49
2023-05-06T01:40:40.914Z,21.49
2023-05-06T01:41:08.309Z,21.49
2023-05-06T01:41:19.293Z,21.48
2023-05-06T01:41:24.832Z,21.48
2023-05-06T01:41:30.364Z,21.48
2023-05-06T01:41:35.900Z,21.49
2023-05-06T01:41:41.440Z,21.51
2023-05-06T01:42:08.785Z,21.51
2023-05-06T01:42:19.851Z,21.49
2023-05-06T01:42:25.324Z,21.48
2023-05-06T01:42:30.870Z,21.49
2023-05-06T01:42:36.405Z,21.49
2023-05-06T01:42:41.944Z,21.48
2023-05-06T01:43:09.295Z,21.49
2023-05-06T01:43:20.317Z,21.49
2023-05-06T01:43:25.861Z,21.48
2023-05-06T01:43:31.401Z,21.48
2023-05-06T01:43:36.934Z,21.49
2023-05-06T01:43:42.462Z,21.49
2023-05-06T01:44:09.833Z,21.48
2023-05-06T01:44:21.807Z,21.48
2023-05-06T01:44:27.340Z,21.48
2023-05-06T01:44:32.875Z,21.49
2023-05-06T01:44:38.413Z,21.49
2023-05-06T01:44:43.963Z,21.48
2023-05-06T01:45:11.417Z,21.48
2023-05-06T01:45:22.447Z,21.46
2023-05-06T01:45:27.991Z,21.48
2023-05-06T01:45:33.525Z,21.46
2023-05-06T01:45:39.058Z,21.49
2023-05-06T01:45:44.595Z,21.49
2023-05-06T01:46:12.176Z,21.46
2023-05-06T01:46:23.268Z,21.46
2023-05-06T01:46:28.805Z,21.46
2023-05-06T01:46:34.351Z,21.46
2023-05-06T01:46:39.984Z,21.48
2023-05-06T01:46:45.714Z,21.46
2023-05-06T01:47:13.202Z,21.48
2023-05-06T01:47:24.245Z,21.48
2023-05-06T01:47:29.810Z,21.48
2023-05-06T01:47:35.331Z,21.49
2023-05-06T01:47:40.862Z,21.48
2023-05-06T01:47:46.419Z,21.48
2023-05-06T01:48:13.818Z,21.48
2023-05-06T01:48:24.845Z,21.49
2023-05-06T01:48:30.385Z,21.46
2023-05-06T01:48:35.998Z,21.46
2023-05-06T01:48:41.512Z,21.46
2023-05-06T01:48:47.054Z,21.49
2023-05-06T01:49:14.429Z,21.49
2023-05-06T01:49:25.424Z,21.48
2023-05-06T01:49:30.973Z,21.48
2023-05-06T01:49:36.508Z,21.48
2023-05-06T01:49:42.042Z,21.48
2023-05-06T01:49:47.582Z,21.46
2023-05-06T01:50:14.928Z,21.48
2023-05-06T01:50:25.922Z,21.46
2023-05-06T01:50:31.464Z,21.48
2023-05-06T01:50:36.996Z,21.48
2023-05-06T01:50:42.536Z,21.46
2023-05-06T01:50:48.077Z,21.48
2023-05-06T01:51:15.513Z,21.48
2023-05-06T01:51:26.490Z,21.48
2023-05-06T01:51:32.045Z,21.46
2023-05-06T01:51:37.570Z,21.46
2023-05-06T01:51:43.106Z,21.48
2023-05-06T01:51:48.661Z,21.48
2023-05-06T01:52:16.016Z,21.46
2023-05-06T01:52:27.010Z,21.48
2023-05-06T01:52:32.557Z,21.48
2023-05-06T01:52:38.102Z,21.48
2023-05-06T01:52:43.636Z,21.46
2023-05-06T01:52:49.174Z,21.46
2023-05-06T01:53:16.536Z,21.48
2023-05-06T01:53:27.578Z,21.48
2023-05-06T01:53:33.115Z,21.48
2023-05-06T01:53:38.652Z,21.46
2023-05-06T01:53:44.200Z,21.48
2023-05-06T01:53:49.734Z,21.48
2023-05-06T01:54:17.125Z,21.46
2023-05-06T01:54:28.202Z,21.46
2023-05-06T01:54:33.735Z,21.45
2023-05-06T01:54:39.277Z,21.46
2023-05-06T01:54:44.837Z,21.46
2023-05-06T01:54:50.361Z,21.45
2023-05-06T01:55:17.708Z,21.45
2023-05-06T01:55:28.702Z,21.43
2023-05-06T01:55:34.245Z,21.46
2023-05-06T01:55:39.788Z,21.43
2023-05-06T01:55:45.323Z,21.45
2023-05-06T01:55:50.858Z,21.45
2023-05-06T01:56:18.209Z,21.45
2023-05-06T01:56:29.212Z,21.45
2023-05-06T01:56:34.753Z,21.46
2023-05-06T01:56:40.283Z,21.43
2023-05-06T01:56:45.840Z,21.45
2023-05-06T01:56:51.372Z,21.45
2023-05-06T01:57:18.713Z,21.45
2023-05-06T01:57:29.720Z,21.45
2023-05-06T01:57:35.252Z,21.45
2023-05-06T01:57:40.794Z,21.43
2023-05-06T01:57:46.339Z,21.45
2023-05-06T01:57:51.887Z,21.43
2023-05-06T01:58:19.252Z,21.43
2023-05-06T01:58:30.268Z,21.42
2023-05-06T01:58:35.820Z,21.43
2023-05-06T01:58:41.344Z,21.42
2023-05-06T01:58:46.874Z,21.42
2023-05-06T01:58:52.418Z,21.43
2023-05-06T01:59:19.770Z,21.42
2023-05-06T01:59:30.782Z,21.43
2023-05-06T01:59:36.323Z,21.43
2023-05-06T01:59:41.865Z,21.43
2023-05-06T01:59:47.412Z,21.42
2023-05-06T01:59:52.939Z,21.42
2023-05-06T02:00:20.319Z,21.42
2023-05-06T02:00:31.360Z,21.40
2023-05-06T02:00:36.893Z,21.40
2023-05-06T02:00:42.533Z,21.40
2023-05-06T02:00:48.049Z,21.40
2023-05-06T02:00:53.961Z,21.40
2023-05-06T02:01:21.327Z,21.40
2023-05-06T02:01:32.332Z,21.40
2023-05-06T02:01:37.951Z,21.40
2023-05-06T02:01:43.516Z,21.40
2023-05-06T02:01:49.041Z,21.40
2023-05-06T02:01:54.631Z,21.42
2023-05-06T02:02:22.053Z,21.40
2023-05-06T02:02:33.166Z,21.40
2023-05-06T02:02:38.855Z,21.38
2023-05-06T02:02:44.530Z,21.38
2023-05-06T02:02:50.141Z,21.38
2023-05-06T02:02:55.748Z,21.40
2023-05-06T02:03:23.187Z,21.38
2023-05-06T02:03:34.339Z,21.38
2023-05-06T02:03:39.948Z,21.40
2023-05-06T02:03:45.647Z,21.38
2023-05-06T02:03:51.364Z,21.37
2023-05-06T02:03:57.043Z,21.38
2023-05-06T02:04:24.519Z,21.38
2023-05-06T02:04:35.510Z,21.38
2023-05-06T02:04:41.318Z,21.38
2023-05-06T02:04:46.855Z,21.37
2023-05-06T02:04:52.393Z,21.37
2023-05-06T02:04:57.937Z,21.37
2023-05-06T02:05:25.284Z,21.37
2023-05-06T02:05:36.278Z,21.36
2023-05-06T02:05:41.819Z,21.38
2023-05-06T02:05:47.357Z,21.37
2023-05-06T02:05:52.921Z,21.38
2023-05-06T02:05:58.772Z,21.37
2023-05-06T02:06:26.141Z,21.37
2023-05-06T02:06:37.132Z,21.37
2023-05-06T02:06:42.671Z,21.37
2023-05-06T02:06:48.217Z,21.37
2023-05-06T02:06:53.749Z,21.36
2023-05-06T02:06:59.307Z,21.36
2023-05-06T02:07:26.656Z,21.36
2023-05-06T02:07:37.644Z,21.38
2023-05-06T02:07:43.187Z,21.37
2023-05-06T02:07:48.735Z,21.37
2023-05-06T02:07:54.270Z,21.37
2023-05-06T02:07:59.812Z,21.37
2023-05-06T02:08:27.212Z,21.38
2023-05-06T02:08:38.232Z,21.37
2023-05-06T02:08:43.769Z,21.38
2023-05-06T02:08:49.311Z,21.40
2023-05-06T02:08:54.845Z,21.37
2023-05-06T02:09:00.439Z,21.38
2023-05-06T02:09:27.860Z,21.38
2023-05-06T02:09:38.851Z,21.37
2023-05-06T02:09:44.391Z,21.37
2023-05-06T02:09:49.947Z,21.38
2023-05-06T02:09:55.468Z,21.38